sensor_id;sensor_type;location;lat;lon;timestamp;pressure;altitude;pressure_sealevel;temperature;humidity
76819;BME280;65772;51.096;17.006;2023-05-02T00:01:40;99979.34;;;18.04;44.29
76819;BME280;65772;51.096;17.006;2023-05-02T00:04:11;99978.48;;;18.02;44.38
76819;BME280;65772;51.096;17.006;2023-05-02T00:06:42;99977.47;;;18.01;44.28
76819;BME280;65772;51.096;17.006;2023-05-02T00:09:14;99975.06;;;17.99;44.51
76819;BME280;65772;51.096;17.006;2023-05-02T00:11:45;99972.14;;;17.98;44.59
76819;BME280;65772;51.096;17.006;2023-05-02T00:14:16;99971.63;;;17.97;44.74
76819;BME280;65772;51.096;17.006;2023-05-02T00:16:46;99969.91;;;17.95;44.77
76819;BME280;65772;51.096;17.006;2023-05-02T00:19:17;99965.59;;;17.93;44.79
76819;BME280;65772;51.096;17.006;2023-05-02T00:21:48;99963.70;;;17.92;44.87
76819;BME280;65772;51.096;17.006;2023-05-02T00:24:19;99961.12;;;17.91;44.82
76819;BME280;65772;51.096;17.006;2023-05-02T00:26:50;99958.20;;;17.90;44.68
76819;BME280;65772;51.096;17.006;2023-05-02T00:29:20;99961.15;;;17.89;44.75
76819;BME280;65772;51.096;17.006;2023-05-02T00:31:51;99963.05;;;17.89;44.74
76819;BME280;65772;51.096;17.006;2023-05-02T00:34:22;99959.08;;;17.87;44.81
76819;BME280;65772;51.096;17.006;2023-05-02T00:36:52;99956.67;;;17.86;44.89
76819;BME280;65772;51.096;17.006;2023-05-02T00:39:23;99952.70;;;17.84;44.83
76819;BME280;65772;51.096;17.006;2023-05-02T00:41:58;99949.60;;;17.84;44.94
76819;BME280;65772;51.096;17.006;2023-05-02T00:44:28;99948.57;;;17.83;45.04
76819;BME280;65772;51.096;17.006;2023-05-02T00:47:01;99947.02;;;17.81;45.08
76819;BME280;65772;51.096;17.006;2023-05-02T00:49:32;99945.13;;;17.80;45.01
76819;BME280;65772;51.096;17.006;2023-05-02T00:52:02;99944.98;;;17.79;45.07
76819;BME280;65772;51.096;17.006;2023-05-02T00:54:33;99943.27;;;17.77;45.05
76819;BME280;65772;51.096;17.006;2023-05-02T00:57:03;99943.44;;;17.77;45.15
76819;BME280;65772;51.096;17.006;2023-05-02T00:59:35;99940.34;;;17.76;45.21
76819;BME280;65772;51.096;17.006;2023-05-02T01:02:14;99939.13;;;17.75;45.28
76819;BME280;65772;51.096;17.006;2023-05-02T01:04:57;99944.31;;;17.74;45.20
76819;BME280;65772;51.096;17.006;2023-05-02T01:07:46;99948.11;;;17.72;45.35
76819;BME280;65772;51.096;17.006;2023-05-02T01:10:26;99944.16;;;17.70;45.36
76819;BME280;65772;51.096;17.006;2023-05-02T01:13:05;99945.73;;;17.68;45.38
76819;BME280;65772;51.096;17.006;2023-05-02T01:15:39;99942.64;;;17.67;45.38
76819;BME280;65772;51.096;17.006;2023-05-02T01:18:12;99944.38;;;17.65;45.53
76819;BME280;65772;51.096;17.006;2023-05-02T01:20:49;99939.88;;;17.65;45.50
76819;BME280;65772;51.096;17.006;2023-05-02T01:23:27;99942.12;;;17.64;45.62
76819;BME280;65772;51.096;17.006;2023-05-02T01:26:08;99945.76;;;17.63;45.54
76819;BME280;65772;51.096;17.006;2023-05-02T01:28:51;99946.09;;;17.63;45.60
76819;BME280;65772;51.096;17.006;2023-05-02T01:31:25;99950.05;;;17.61;45.75
76819;BME280;65772;51.096;17.006;2023-05-02T01:33:59;99951.97;;;17.59;45.72
76819;BME280;65772;51.096;17.006;2023-05-02T01:36:32;99950.95;;;17.56;45.63
76819;BME280;65772;51.096;17.006;2023-05-02T01:39:06;99956.66;;;17.54;45.75
76819;BME280;65772;51.096;17.006;2023-05-02T01:41:39;99957.00;;;17.51;45.78
76819;BME280;65772;51.096;17.006;2023-05-02T01:44:09;99958.06;;;17.48;45.85
76819;BME280;65772;51.096;17.006;2023-05-02T01:46:42;99955.84;;;17.43;45.91
76819;BME280;65772;51.096;17.006;2023-05-02T01:49:18;99954.64;;;17.41;46.11
76819;BME280;65772;51.096;17.006;2023-05-02T01:51:50;99954.83;;;17.39;46.06
76819;BME280;65772;51.096;17.006;2023-05-02T01:54:21;99958.12;;;17.37;46.30
76819;BME280;65772;51.096;17.006;2023-05-02T01:56:52;99961.08;;;17.34;46.19
76819;BME280;65772;51.096;17.006;2023-05-02T01:59:24;99961.08;;;17.31;46.26
76819;BME280;65772;51.096;17.006;2023-05-02T02:02:00;99957.27;;;17.30;46.29
76819;BME280;65772;51.096;17.006;2023-05-02T02:04:31;99959.88;;;17.28;46.24
76819;BME280;65772;51.096;17.006;2023-05-02T02:07:07;99956.80;;;17.26;46.36
76819;BME280;65772;51.096;17.006;2023-05-02T02:09:39;99958.70;;;17.25;46.49
76819;BME280;65772;51.096;17.006;2023-05-02T02:12:14;99956.98;;;17.23;46.57
76819;BME280;65772;51.096;17.006;2023-05-02T02:14:49;99960.08;;;17.22;46.56
76819;BME280;65772;51.096;17.006;2023-05-02T02:17:24;99962.15;;;17.21;46.52
76819;BME280;65772;51.096;17.006;2023-05-02T02:19:57;99966.63;;;17.20;46.61
76819;BME280;65772;51.096;17.006;2023-05-02T02:22:30;99975.95;;;17.19;46.71
76819;BME280;65772;51.096;17.006;2023-05-02T02:25:06;99978.71;;;17.19;46.80
76819;BME280;65772;51.096;17.006;2023-05-02T02:27:38;99984.23;;;17.19;46.86
76819;BME280;65772;51.096;17.006;2023-05-02T02:30:10;99986.82;;;17.19;46.78
76819;BME280;65772;51.096;17.006;2023-05-02T02:32:41;99993.02;;;17.18;47.05
76819;BME280;65772;51.096;17.006;2023-05-02T02:35:12;99997.86;;;17.19;46.96
76819;BME280;65772;51.096;17.006;2023-05-02T02:37:47;100000.28;;;17.18;46.91
76819;BME280;65772;51.096;17.006;2023-05-02T02:40:27;100002.88;;;17.16;47.01
76819;BME280;65772;51.096;17.006;2023-05-02T02:43:07;100004.96;;;17.14;46.84
76819;BME280;65772;51.096;17.006;2023-05-02T02:45:59;100009.27;;;17.11;47.13
76819;BME280;65772;51.096;17.006;2023-05-02T02:48:35;100010.31;;;17.08;47.18
76819;BME280;65772;51.096;17.006;2023-05-02T02:51:11;100008.27;;;17.05;47.24
76819;BME280;65772;51.096;17.006;2023-05-02T02:53:45;100013.10;;;17.03;47.29
76819;BME280;65772;51.096;17.006;2023-05-02T02:56:24;100014.30;;;16.99;47.10
76819;BME280;65772;51.096;17.006;2023-05-02T02:58:59;100016.89;;;16.98;47.10
76819;BME280;65772;51.096;17.006;2023-05-02T03:01:33;100020.69;;;16.95;47.27
76819;BME280;65772;51.096;17.006;2023-05-02T03:04:07;100022.95;;;16.94;47.24
76819;BME280;65772;51.096;17.006;2023-05-02T03:06:40;100025.36;;;16.92;47.27
76819;BME280;65772;51.096;17.006;2023-05-02T03:09:14;100029.15;;;16.91;47.28
76819;BME280;65772;51.096;17.006;2023-05-02T03:11:47;100031.56;;;16.89;47.14
76819;BME280;65772;51.096;17.006;2023-05-02T03:14:19;100030.36;;;16.90;47.12
76819;BME280;65772;51.096;17.006;2023-05-02T03:16:50;100030.53;;;16.92;46.97
76819;BME280;65772;51.096;17.006;2023-05-02T03:19:20;100032.09;;;16.94;47.03
76819;BME280;65772;51.096;17.006;2023-05-02T03:21:51;100029.13;;;16.96;47.08
76819;BME280;65772;51.096;17.006;2023-05-02T03:24:22;100030.86;;;16.99;46.99
76819;BME280;65772;51.096;17.006;2023-05-02T03:26:56;100034.65;;;17.02;46.99
76819;BME280;65772;51.096;17.006;2023-05-02T03:29:29;100035.33;;;17.06;46.89
76819;BME280;65772;51.096;17.006;2023-05-02T03:32:00;100037.91;;;17.08;46.91
76819;BME280;65772;51.096;17.006;2023-05-02T03:34:30;100041.36;;;17.11;46.74
76819;BME280;65772;51.096;17.006;2023-05-02T03:37:02;100043.08;;;17.15;46.78
76819;BME280;65772;51.096;17.006;2023-05-02T03:39:33;100048.58;;;17.17;46.72
76819;BME280;65772;51.096;17.006;2023-05-02T03:42:04;100062.55;;;17.19;46.76
76819;BME280;65772;51.096;17.006;2023-05-02T03:44:34;100065.31;;;17.18;46.74
76819;BME280;65772;51.096;17.006;2023-05-02T03:47:05;100070.83;;;17.17;46.84
76819;BME280;65772;51.096;17.006;2023-05-02T03:49:37;100078.10;;;17.15;46.98
76819;BME280;65772;51.096;17.006;2023-05-02T03:52:08;100080.16;;;17.13;46.88
76819;BME280;65772;51.096;17.006;2023-05-02T03:54:38;100083.27;;;17.11;47.03
76819;BME280;65772;51.096;17.006;2023-05-02T03:57:10;100083.27;;;17.10;47.05
76819;BME280;65772;51.096;17.006;2023-05-02T03:59:41;100088.10;;;17.08;47.35
76819;BME280;65772;51.096;17.006;2023-05-02T04:02:16;100089.82;;;17.07;47.41
76819;BME280;65772;51.096;17.006;2023-05-02T04:04:49;100090.85;;;17.07;47.56
76819;BME280;65772;51.096;17.006;2023-05-02T04:07:22;100098.62;;;17.10;47.58
76819;BME280;65772;51.096;17.006;2023-05-02T04:10:04;100100.69;;;17.12;47.75
76819;BME280;65772;51.096;17.006;2023-05-02T04:12:40;100105.02;;;17.12;47.89
76819;BME280;65772;51.096;17.006;2023-05-02T04:15:12;100105.01;;;17.11;48.00
76819;BME280;65772;51.096;17.006;2023-05-02T04:17:43;100107.08;;;17.12;48.06
76819;BME280;65772;51.096;17.006;2023-05-02T04:20:15;100111.23;;;17.14;48.27
76819;BME280;65772;51.096;17.006;2023-05-02T04:22:50;100116.21;;;17.16;48.49
76819;BME280;65772;51.096;17.006;2023-05-02T04:25:21;100123.61;;;17.17;48.67
76819;BME280;65772;51.096;17.006;2023-05-02T04:27:53;100128.80;;;17.16;48.93
76819;BME280;65772;51.096;17.006;2023-05-02T04:30:26;100135.02;;;17.15;49.19
76819;BME280;65772;51.096;17.006;2023-05-02T04:33:02;100139.00;;;17.14;49.63
76819;BME280;65772;51.096;17.006;2023-05-02T04:35:37;100149.16;;;17.12;49.81
76819;BME280;65772;51.096;17.006;2023-05-02T04:38:08;100155.71;;;17.10;50.19
76819;BME280;65772;51.096;17.006;2023-05-02T04:40:39;100163.81;;;17.06;50.46
76819;BME280;65772;51.096;17.006;2023-05-02T04:43:10;100166.08;;;17.04;50.83
76819;BME280;65772;51.096;17.006;2023-05-02T04:45:46;100169.69;;;17.01;51.19
76819;BME280;65772;51.096;17.006;2023-05-02T04:48:24;100172.79;;;16.99;51.58
76819;BME280;65772;51.096;17.006;2023-05-02T04:50:55;100174.34;;;16.98;51.86
76819;BME280;65772;51.096;17.006;2023-05-02T04:53:25;100175.54;;;16.99;51.95
76819;BME280;65772;51.096;17.006;2023-05-02T04:55:56;100177.10;;;17.00;52.23
76819;BME280;65772;51.096;17.006;2023-05-02T04:58:27;100177.80;;;17.01;52.40
76819;BME280;65772;51.096;17.006;2023-05-02T05:01:04;100173.83;;;17.01;52.94
76819;BME280;65772;51.096;17.006;2023-05-02T05:03:34;100175.19;;;16.99;53.17
76819;BME280;65772;51.096;17.006;2023-05-02T05:06:06;100171.06;;;16.95;53.42
76819;BME280;65772;51.096;17.006;2023-05-02T05:08:37;100173.83;;;16.92;53.73
76819;BME280;65772;51.096;17.006;2023-05-02T05:11:08;100173.81;;;16.90;54.07
76819;BME280;65772;51.096;17.006;2023-05-02T05:13:39;100177.44;;;16.89;54.36
76819;BME280;65772;51.096;17.006;2023-05-02T05:16:09;100180.02;;;16.87;54.48
76819;BME280;65772;51.096;17.006;2023-05-02T05:18:40;100180.38;;;16.83;54.76
76819;BME280;65772;51.096;17.006;2023-05-02T05:21:14;100176.73;;;16.79;54.74
76819;BME280;65772;51.096;17.006;2023-05-02T05:23:44;100180.87;;;16.77;54.74
76819;BME280;65772;51.096;17.006;2023-05-02T05:26:20;100185.33;;;16.75;54.91
76819;BME280;65772;51.096;17.006;2023-05-02T05:28:53;100189.14;;;16.74;55.21
76819;BME280;65772;51.096;17.006;2023-05-02T05:31:25;100198.27;;;16.73;55.27
76819;BME280;65772;51.096;17.006;2023-05-02T05:33:59;100204.15;;;16.73;55.59
76819;BME280;65772;51.096;17.006;2023-05-02T05:36:31;100207.95;;;16.73;55.61
76819;BME280;65772;51.096;17.006;2023-05-02T05:39:03;100208.98;;;16.73;55.74
76819;BME280;65772;51.096;17.006;2023-05-02T05:41:33;100207.77;;;16.72;55.83
76819;BME280;65772;51.096;17.006;2023-05-02T05:44:07;100212.77;;;16.71;55.82
76819;BME280;65772;51.096;17.006;2023-05-02T05:46:37;100213.80;;;16.72;55.91
76819;BME280;65772;51.096;17.006;2023-05-02T05:49:10;100218.46;;;16.72;56.21
76819;BME280;65772;51.096;17.006;2023-05-02T05:51:42;100218.45;;;16.73;56.29
76819;BME280;65772;51.096;17.006;2023-05-02T05:54:13;100223.95;;;16.75;56.27
76819;BME280;65772;51.096;17.006;2023-05-02T05:56:46;100228.61;;;16.76;56.42
76819;BME280;65772;51.096;17.006;2023-05-02T05:59:19;100222.41;;;16.76;56.17
76819;BME280;65772;51.096;17.006;2023-05-02T06:01:50;100225.69;;;16.76;56.07
76819;BME280;65772;51.096;17.006;2023-05-02T06:04:23;100229.14;;;16.77;56.10
76819;BME280;65772;51.096;17.006;2023-05-02T06:06:54;100229.83;;;16.77;55.82
76819;BME280;65772;51.096;17.006;2023-05-02T06:09:25;100230.34;;;16.77;55.63
76819;BME280;65772;51.096;17.006;2023-05-02T06:11:56;100235.86;;;16.77;55.76
76819;BME280;65772;51.096;17.006;2023-05-02T06:14:26;100238.27;;;16.78;55.78
76819;BME280;65772;51.096;17.006;2023-05-02T06:16:59;100244.83;;;16.79;55.75
76819;BME280;65772;51.096;17.006;2023-05-02T06:19:29;100248.45;;;16.78;55.53
76819;BME280;65772;51.096;17.006;2023-05-02T06:22:00;100250.35;;;16.79;55.56
76819;BME280;65772;51.096;17.006;2023-05-02T06:24:30;100252.25;;;16.78;55.52
76819;BME280;65772;51.096;17.006;2023-05-02T06:27:01;100254.31;;;16.78;55.77
76819;BME280;65772;51.096;17.006;2023-05-02T06:29:31;100258.96;;;16.78;55.91
76819;BME280;65772;51.096;17.006;2023-05-02T06:32:02;100262.41;;;16.79;55.73
76819;BME280;65772;51.096;17.006;2023-05-02T06:34:34;100267.42;;;16.79;55.56
76819;BME280;65772;51.096;17.006;2023-05-02T06:37:04;100270.70;;;16.79;55.62
76819;BME280;65772;51.096;17.006;2023-05-02T06:39:35;100268.45;;;16.79;55.87
76819;BME280;65772;51.096;17.006;2023-05-02T06:42:05;100272.61;;;16.81;56.04
76819;BME280;65772;51.096;17.006;2023-05-02T06:44:36;100279.86;;;16.83;56.17
76819;BME280;65772;51.096;17.006;2023-05-02T06:47:07;100279.51;;;16.83;56.15
76819;BME280;65772;51.096;17.006;2023-05-02T06:49:37;100284.67;;;16.84;56.35
76819;BME280;65772;51.096;17.006;2023-05-02T06:52:08;100284.49;;;16.86;56.69
76819;BME280;65772;51.096;17.006;2023-05-02T06:54:38;100290.54;;;16.88;57.00
76819;BME280;65772;51.096;17.006;2023-05-02T06:57:10;100292.27;;;16.88;56.79
76819;BME280;65772;51.096;17.006;2023-05-02T06:59:41;100293.66;;;16.91;56.90
76819;BME280;65772;51.096;17.006;2023-05-02T07:02:11;100297.46;;;16.92;56.93
76819;BME280;65772;51.096;17.006;2023-05-02T07:04:42;100297.81;;;16.94;57.08
76819;BME280;65772;51.096;17.006;2023-05-02T07:07:13;100296.94;;;16.96;57.06
76819;BME280;65772;51.096;17.006;2023-05-02T07:09:47;100301.26;;;16.98;57.08
76819;BME280;65772;51.096;17.006;2023-05-02T07:12:17;100303.86;;;16.99;56.99
76819;BME280;65772;51.096;17.006;2023-05-02T07:14:49;100307.48;;;17.01;57.26
76819;BME280;65772;51.096;17.006;2023-05-02T07:17:19;100308.88;;;17.03;57.30
76819;BME280;65772;51.096;17.006;2023-05-02T07:19:50;100313.20;;;17.05;57.45
76819;BME280;65772;51.096;17.006;2023-05-02T07:22:21;100309.39;;;17.06;57.49
76819;BME280;65772;51.096;17.006;2023-05-02T07:24:59;100309.39;;;17.08;57.52
76819;BME280;65772;51.096;17.006;2023-05-02T07:27:30;100309.58;;;17.10;57.65
76819;BME280;65772;51.096;17.006;2023-05-02T07:30:00;100310.11;;;17.13;57.36
76819;BME280;65772;51.096;17.006;2023-05-02T07:32:32;100317.02;;;17.14;57.21
76819;BME280;65772;51.096;17.006;2023-05-02T07:35:02;100318.73;;;17.16;56.97
76819;BME280;65772;51.096;17.006;2023-05-02T07:37:34;100319.94;;;17.16;56.77
76819;BME280;65772;51.096;17.006;2023-05-02T07:40:07;100318.38;;;17.18;56.24
76819;BME280;65772;51.096;17.006;2023-05-02T07:42:38;100325.63;;;17.20;56.11
76819;BME280;65772;51.096;17.006;2023-05-02T07:45:10;100326.85;;;17.22;55.98
76819;BME280;65772;51.096;17.006;2023-05-02T07:47:41;100331.34;;;17.22;56.00
76819;BME280;65772;51.096;17.006;2023-05-02T07:50:12;100336.17;;;17.23;55.62
76819;BME280;65772;51.096;17.006;2023-05-02T07:52:42;100339.64;;;17.24;55.26
76819;BME280;65772;51.096;17.006;2023-05-02T07:55:13;100339.29;;;17.24;55.18
76819;BME280;65772;51.096;17.006;2023-05-02T07:57:43;100345.34;;;17.25;55.19
76819;BME280;65772;51.096;17.006;2023-05-02T08:00:15;100344.47;;;17.26;55.17
76819;BME280;65772;51.096;17.006;2023-05-02T08:02:46;100342.73;;;17.28;55.17
76819;BME280;65772;51.096;17.006;2023-05-02T08:05:17;100346.02;;;17.31;55.10
76819;BME280;65772;51.096;17.006;2023-05-02T08:07:47;100351.02;;;17.33;54.89
76819;BME280;65772;51.096;17.006;2023-05-02T08:10:18;100353.45;;;17.35;54.82
76819;BME280;65772;51.096;17.006;2023-05-02T08:12:49;100358.64;;;17.37;54.75
76819;BME280;65772;51.096;17.006;2023-05-02T08:15:19;100358.10;;;17.39;54.60
76819;BME280;65772;51.096;17.006;2023-05-02T08:17:50;100357.94;;;17.41;54.48
76819;BME280;65772;51.096;17.006;2023-05-02T08:20:20;100355.19;;;17.43;54.20
76819;BME280;65772;51.096;17.006;2023-05-02T08:22:51;100355.70;;;17.44;54.12
76819;BME280;65772;51.096;17.006;2023-05-02T08:25:22;100358.65;;;17.45;53.70
76819;BME280;65772;51.096;17.006;2023-05-02T08:27:52;100361.07;;;17.46;53.57
76819;BME280;65772;51.096;17.006;2023-05-02T08:30:23;100359.35;;;17.47;53.55
76819;BME280;65772;51.096;17.006;2023-05-02T08:32:53;100362.96;;;17.50;53.19
76819;BME280;65772;51.096;17.006;2023-05-02T08:35:24;100364.86;;;17.52;53.10
76819;BME280;65772;51.096;17.006;2023-05-02T08:37:55;100370.05;;;17.53;52.68
76819;BME280;65772;51.096;17.006;2023-05-02T08:40:25;100373.67;;;17.55;52.39
76819;BME280;65772;51.096;17.006;2023-05-02T08:43:11;100374.89;;;17.56;51.92
76819;BME280;65772;51.096;17.006;2023-05-02T08:45:43;100377.14;;;17.57;51.44
76819;BME280;65772;51.096;17.006;2023-05-02T08:48:14;100376.80;;;17.58;51.28
76819;BME280;65772;51.096;17.006;2023-05-02T08:50:46;100381.80;;;17.58;51.27
76819;BME280;65772;51.096;17.006;2023-05-02T08:53:18;100382.84;;;17.58;51.12
76819;BME280;65772;51.096;17.006;2023-05-02T08:55:49;100387.51;;;17.58;50.94
76819;BME280;65772;51.096;17.006;2023-05-02T08:58:20;100391.61;;;17.60;51.26
76819;BME280;65772;51.096;17.006;2023-05-02T09:00:52;100392.67;;;17.62;51.55
76819;BME280;65772;51.096;17.006;2023-05-02T09:03:29;100394.24;;;17.63;51.58
76819;BME280;65772;51.096;17.006;2023-05-02T09:06:05;100394.09;;;17.64;51.62
76819;BME280;65772;51.096;17.006;2023-05-02T09:08:37;100400.83;;;17.65;51.68
76819;BME280;65772;51.096;17.006;2023-05-02T09:11:09;100404.98;;;17.66;51.53
76819;BME280;65772;51.096;17.006;2023-05-02T09:13:39;100407.05;;;17.67;51.43
76819;BME280;65772;51.096;17.006;2023-05-02T09:16:11;100409.80;;;17.67;51.69
76819;BME280;65772;51.096;17.006;2023-05-02T09:18:44;100411.89;;;17.68;51.90
76819;BME280;65772;51.096;17.006;2023-05-02T09:21:16;100416.21;;;17.69;52.06
76819;BME280;65772;51.096;17.006;2023-05-02T09:23:50;100420.50;;;17.70;52.04
76819;BME280;65772;51.096;17.006;2023-05-02T09:26:20;100418.95;;;17.71;52.08
76819;BME280;65772;51.096;17.006;2023-05-02T09:28:52;100423.95;;;17.70;51.98
76819;BME280;65772;51.096;17.006;2023-05-02T09:31:24;100422.23;;;17.72;51.96
76819;BME280;65772;51.096;17.006;2023-05-02T09:34:16;100426.55;;;17.73;52.12
76819;BME280;65772;51.096;17.006;2023-05-02T09:36:48;100429.50;;;17.74;52.15
76819;BME280;65772;51.096;17.006;2023-05-02T09:39:22;100429.85;;;17.75;52.38
76819;BME280;65772;51.096;17.006;2023-05-02T09:41:54;100433.83;;;17.77;52.34
76819;BME280;65772;51.096;17.006;2023-05-02T09:44:27;100439.69;;;17.80;52.43
76819;BME280;65772;51.096;17.006;2023-05-02T09:47:05;100442.45;;;17.81;51.80
76819;BME280;65772;51.096;17.006;2023-05-02T09:49:39;100444.19;;;17.82;51.09
76819;BME280;65772;51.096;17.006;2023-05-02T09:52:13;100441.41;;;17.81;50.83
76819;BME280;65772;51.096;17.006;2023-05-02T09:54:45;100444.52;;;17.82;50.87
76819;BME280;65772;51.096;17.006;2023-05-02T09:57:15;100446.95;;;17.84;50.86
76819;BME280;65772;51.096;17.006;2023-05-02T09:59:56;100447.65;;;17.85;50.66
76819;BME280;65772;51.096;17.006;2023-05-02T10:02:30;100453.17;;;17.85;50.34
76819;BME280;65772;51.096;17.006;2023-05-02T10:05:02;100450.92;;;17.86;50.25
76819;BME280;65772;51.096;17.006;2023-05-02T10:07:35;100454.04;;;17.87;50.36
76819;BME280;65772;51.096;17.006;2023-05-02T10:10:08;100451.13;;;17.89;50.48
76819;BME280;65772;51.096;17.006;2023-05-02T10:12:42;100453.68;;;17.91;50.55
76819;BME280;65772;51.096;17.006;2023-05-02T10:15:13;100459.58;;;17.94;50.48
76819;BME280;65772;51.096;17.006;2023-05-02T10:17:48;100463.55;;;17.97;49.78
76819;BME280;65772;51.096;17.006;2023-05-02T10:20:23;100467.18;;;17.98;49.12
76819;BME280;65772;51.096;17.006;2023-05-02T10:22:59;100462.70;;;17.99;48.63
76819;BME280;65772;51.096;17.006;2023-05-02T10:25:30;100462.86;;;18.00;48.21
76819;BME280;65772;51.096;17.006;2023-05-02T10:28:02;100462.16;;;18.01;47.70
76819;BME280;65772;51.096;17.006;2023-05-02T10:30:34;100463.54;;;18.01;47.52
76819;BME280;65772;51.096;17.006;2023-05-02T10:33:04;100461.46;;;18.02;47.19
76819;BME280;65772;51.096;17.006;2023-05-02T10:35:36;100462.67;;;18.03;47.42
76819;BME280;65772;51.096;17.006;2023-05-02T10:38:08;100459.76;;;18.05;47.50
76819;BME280;65772;51.096;17.006;2023-05-02T10:40:41;100462.87;;;18.07;47.21
76819;BME280;65772;51.096;17.006;2023-05-02T10:43:15;100463.91;;;18.09;46.99
76819;BME280;65772;51.096;17.006;2023-05-02T10:45:46;100465.13;;;18.11;47.02
76819;BME280;65772;51.096;17.006;2023-05-02T10:48:18;100469.77;;;18.13;46.73
76819;BME280;65772;51.096;17.006;2023-05-02T10:50:52;100474.10;;;18.15;46.07
76819;BME280;65772;51.096;17.006;2023-05-02T10:53:30;100476.35;;;18.17;46.04
76819;BME280;65772;51.096;17.006;2023-05-02T10:56:20;100480.34;;;18.20;46.13
76819;BME280;65772;51.096;17.006;2023-05-02T10:58:52;100478.09;;;18.21;45.73
76819;BME280;65772;51.096;17.006;2023-05-02T11:01:35;100471.17;;;18.20;45.91
76819;BME280;65772;51.096;17.006;2023-05-02T11:04:10;100476.16;;;18.23;44.95
76819;BME280;65772;51.096;17.006;2023-05-02T11:07:17;100479.97;;;18.23;44.33
76819;BME280;65772;51.096;17.006;2023-05-02T11:09:48;100475.13;;;18.24;44.31
76819;BME280;65772;51.096;17.006;2023-05-02T11:12:44;100475.14;;;18.25;44.46
76819;BME280;65772;51.096;17.006;2023-05-02T11:15:55;100481.02;;;18.27;44.72
76819;BME280;65772;51.096;17.006;2023-05-02T11:18:58;100485.17;;;18.29;43.35
76819;BME280;65772;51.096;17.006;2023-05-02T11:21:30;100484.30;;;18.30;42.81
76819;BME280;65772;51.096;17.006;2023-05-02T11:27:39;100492.06;;;18.34;43.29
76819;BME280;65772;51.096;17.006;2023-05-02T11:30:12;100491.73;;;18.36;43.31
76819;BME280;65772;51.096;17.006;2023-05-02T11:33:13;100492.42;;;18.38;43.22
76819;BME280;65772;51.096;17.006;2023-05-02T11:35:47;100493.98;;;18.39;42.96
76819;BME280;65772;51.096;17.006;2023-05-02T11:38:19;100497.10;;;18.41;43.21
76819;BME280;65772;51.096;17.006;2023-05-02T11:40:56;100502.13;;;18.43;43.28
76819;BME280;65772;51.096;17.006;2023-05-02T11:43:27;100502.63;;;18.44;43.12
76819;BME280;65772;51.096;17.006;2023-05-02T11:46:01;100503.30;;;18.45;43.27
76819;BME280;65772;51.096;17.006;2023-05-02T11:48:34;100507.45;;;18.46;43.36
76819;BME280;65772;51.096;17.006;2023-05-02T11:51:05;100504.34;;;18.47;43.57
76819;BME280;65772;51.096;17.006;2023-05-02T11:53:40;100504.88;;;18.49;43.74
76819;BME280;65772;51.096;17.006;2023-05-02T11:56:11;100504.88;;;18.51;43.85
76819;BME280;65772;51.096;17.006;2023-05-02T11:58:42;100505.57;;;18.53;43.87
76819;BME280;65772;51.096;17.006;2023-05-02T12:01:13;100501.23;;;18.55;43.84
76819;BME280;65772;51.096;17.006;2023-05-02T12:03:45;100505.89;;;18.56;43.92
76819;BME280;65772;51.096;17.006;2023-05-02T12:06:18;100503.14;;;18.57;44.12
76819;BME280;65772;51.096;17.006;2023-05-02T12:08:49;100497.47;;;18.59;44.12
76819;BME280;65772;51.096;17.006;2023-05-02T12:11:23;100501.09;;;18.61;44.16
76819;BME280;65772;51.096;17.006;2023-05-02T12:13:55;100496.77;;;18.63;44.44
76819;BME280;65772;51.096;17.006;2023-05-02T12:16:25;100498.31;;;18.65;44.94
76819;BME280;65772;51.096;17.006;2023-05-02T12:18:56;100501.42;;;18.67;45.04
76819;BME280;65772;51.096;17.006;2023-05-02T12:21:30;100497.45;;;18.70;45.09
76819;BME280;65772;51.096;17.006;2023-05-02T12:24:02;100498.67;;;18.72;45.28
76819;BME280;65772;51.096;17.006;2023-05-02T12:26:32;100504.20;;;18.74;45.36
76819;BME280;65772;51.096;17.006;2023-05-02T12:29:04;100509.71;;;18.77;45.19
76819;BME280;65772;51.096;17.006;2023-05-02T12:31:36;100510.57;;;18.79;45.22
76819;BME280;65772;51.096;17.006;2023-05-02T12:34:07;100513.17;;;18.81;44.85
76819;BME280;65772;51.096;17.006;2023-05-02T12:36:44;100519.91;;;18.82;44.30
76819;BME280;65772;51.096;17.006;2023-05-02T12:39:14;100525.46;;;18.83;43.94
76819;BME280;65772;51.096;17.006;2023-05-02T12:41:44;100539.64;;;18.84;44.24
76819;BME280;65772;51.096;17.006;2023-05-02T12:44:15;100539.30;;;18.82;45.22
76819;BME280;65772;51.096;17.006;2023-05-02T12:46:59;100543.44;;;18.81;45.67
76819;BME280;65772;51.096;17.006;2023-05-02T12:49:30;100547.42;;;18.76;45.83
76819;BME280;65772;51.096;17.006;2023-05-02T12:52:01;100545.54;;;18.72;45.94
76819;BME280;65772;51.096;17.006;2023-05-02T12:54:31;100546.73;;;18.70;45.82
76819;BME280;65772;51.096;17.006;2023-05-02T12:57:02;100550.55;;;18.68;45.84
76819;BME280;65772;51.096;17.006;2023-05-02T12:59:32;100553.13;;;18.67;46.41
76819;BME280;65772;51.096;17.006;2023-05-02T13:02:03;100553.48;;;18.66;46.94
76819;BME280;65772;51.096;17.006;2023-05-02T13:04:38;100555.56;;;18.64;47.34
76819;BME280;65772;51.096;17.006;2023-05-02T13:07:10;100554.36;;;18.63;47.38
76819;BME280;65772;51.096;17.006;2023-05-02T13:09:40;100554.52;;;18.62;47.51
76819;BME280;65772;51.096;17.006;2023-05-02T13:12:11;100556.95;;;18.61;47.51
76819;BME280;65772;51.096;17.006;2023-05-02T13:14:42;100557.29;;;18.61;47.55
76819;BME280;65772;51.096;17.006;2023-05-02T13:17:13;100556.26;;;18.61;47.61